Etusivu
METAR-TAF:

METAR-TAF

Lentoasemat :

Karachi, Pakistan

Leveyspiiri: 24-54N, Pituuspiiri: 067-08E, korkeus merenpinnasta: 21 m

Tämänhetkinen sää

Tämä raportti tehtiin 37 minuuttia sitten, kello 02.55 UTC
Tuuli 6 kn luoteesta
Lämpötila 20°C
Kosteus 32%
Ilmanpaine 1018 hPa
Näkyvyys: 3000 m
usvaa

METAR: OPKC 210255Z 32006KT 3000 HZ NSC 20/03 Q1018 NOSIG

Aika: 08:32 (03:32 UTC)

Sääennuste

Tämä raportti tehtiin 3 tuntia ja 2 minuuttia sitten, kello 00.30 UTC
Ennuste voimassa 21. päivästä klo 03 UTC - 21. päivään klo 12 UTC
Tuuli 5 kn idästä/koillisesta puuskistuen 15 kn:hen
Näkyvyys: 6000 m
Muutamia pilviä 3000 ft:n korkeudessa
Hajanaisia pilviä 10000 ft:n korkeudessa

TAF: OPKC 210030Z 2103/2112 06005G15KT 6000 FEW030 SCT100

Säähavainnot ja -ennusteet yli 4000 lentoasemalta (METAR- ja TAF-raportit).

Käytössä olevat sääasemat on merkitty karttaan keltaisilla ja punaisilla pisteillä.

Aseta hiiri pisteen päälle nähdäksesi sääaseman nimen.

Klikkaa sitten nähdäksesi säähavainnot ja -ennusteet.

Kartan vaihtaminen: klikkaa mustalla rastilla varustettuja vihreitä pisteitä, niin voit zoomata sisään; viivalla varustettua vihreää pistettä, niin voit zoomata ulos tai vihreitä nuolia, niin pääset viereisille kartoille.


METAR-TAF: